Pagrindinis puslapis
METAR-TAF:

METAR-TAF

Oro uostai :

Paraguaná, Venesuela

platuma: 11-47N, ilguma: 070-09W, Aukštis: 23 m

METAR: trūkstamas

Laikas: 22:58 (02:58 UTC)

Prognozė

Ataskaita buvo paskelbta 4 valandos ir 58 minutes, ne 22:00 UTC
Prognozė galioja nuo 27 metu 00 UTC su 28 metu 00 UTC
Vėjas 9 kt iš Rytų
Matomumas 10 km arba daugiau
Išsisklaidę debesys ne aukštis 1600 ft
Tapsmas
nuo 27 metu 00 UTC su 27 metu 04 UTC
Vėjas 6 kt iš Pietų
Matomumas: 9000 m
Išsisklaidę debesys ne aukštis 1600 ft
Su prošvaistėmis ne aukštis 3000 ft
dulksna

TAF: SVJC 262200Z 2700/2800 09009KT 9999 SCT016 TX33/19Z TN25/08Z BECMG 2700/2704 18006KT 9000 -DZ SCT016 BKN030

Orai ataskaitas ir orų prognozės (METAR, TAF).

turimą stotys yra geltonos ir raudonos taškus žemėlapyje.

Perkelti pele per norėdami pamatyti stoties vardą.

Tada spustelėkite, norėdami matyti oro stebėjimo ir prognozės.

Norėdami pakeisti žemėlapį: spustelėkite ant žalios mygtukų su juodo kryžiaus žemyn,; žalią mygtuką su brūkšneliu, jei norite nutolinti; arba žalių rodyklių gretimoms žemėlapius.


METAR-TAF: